sensor_id;sensor_type;location;lat;lon;timestamp;P1;durP1;ratioP1;P2;durP2;ratioP2
70303;SDS011;57712;48.752;11.348;2023-06-24T00:03:15;8.10;;;4.20;;
70303;SDS011;57712;48.752;11.348;2023-06-24T00:06:41;6.85;;;4.00;;
70303;SDS011;57712;48.752;11.348;2023-06-24T00:10:12;8.52;;;4.35;;
70303;SDS011;57712;48.752;11.348;2023-06-24T00:13:38;7.20;;;3.93;;
70303;SDS011;57712;48.752;11.348;2023-06-24T00:17:03;8.25;;;4.32;;
70303;SDS011;57712;48.752;11.348;2023-06-24T00:20:33;8.73;;;4.60;;
70303;SDS011;57712;48.752;11.348;2023-06-24T00:23:58;7.45;;;4.32;;
70303;SDS011;57712;48.752;11.348;2023-06-24T00:27:24;8.02;;;4.30;;
70303;SDS011;57712;48.752;11.348;2023-06-24T00:30:49;10.00;;;4.27;;
70303;SDS011;57712;48.752;11.348;2023-06-24T00:34:15;8.52;;;4.45;;
70303;SDS011;57712;48.752;11.348;2023-06-24T00:37:40;7.07;;;4.32;;
70303;SDS011;57712;48.752;11.348;2023-06-24T00:41:06;8.05;;;4.40;;
70303;SDS011;57712;48.752;11.348;2023-06-24T00:44:32;8.10;;;4.03;;
70303;SDS011;57712;48.752;11.348;2023-06-24T00:47:58;8.60;;;3.87;;
70303;SDS011;57712;48.752;11.348;2023-06-24T00:51:25;7.40;;;4.40;;
70303;SDS011;57712;48.752;11.348;2023-06-24T00:54:50;8.13;;;4.18;;
70303;SDS011;57712;48.752;11.348;2023-06-24T00:58:15;8.60;;;4.00;;
70303;SDS011;57712;48.752;11.348;2023-06-24T01:01:41;7.10;;;4.32;;
70303;SDS011;57712;48.752;11.348;2023-06-24T01:05:09;7.40;;;4.30;;
70303;SDS011;57712;48.752;11.348;2023-06-24T01:08:38;8.80;;;4.60;;
70303;SDS011;57712;48.752;11.348;2023-06-24T01:12:04;7.57;;;4.55;;
70303;SDS011;57712;48.752;11.348;2023-06-24T01:15:29;7.13;;;4.13;;
70303;SDS011;57712;48.752;11.348;2023-06-24T01:19:12;7.88;;;4.53;;
70303;SDS011;57712;48.752;11.348;2023-06-24T01:22:48;8.60;;;3.80;;
70303;SDS011;57712;48.752;11.348;2023-06-24T01:30:02;8.18;;;4.53;;
70303;SDS011;57712;48.752;11.348;2023-06-24T01:37:41;8.50;;;4.68;;
70303;SDS011;57712;48.752;11.348;2023-06-24T01:41:11;7.47;;;4.13;;
70303;SDS011;57712;48.752;11.348;2023-06-24T01:44:40;8.90;;;4.70;;
70303;SDS011;57712;48.752;11.348;2023-06-24T01:51:40;8.68;;;4.32;;
70303;SDS011;57712;48.752;11.348;2023-06-24T01:55:09;8.88;;;4.50;;
70303;SDS011;57712;48.752;11.348;2023-06-24T01:58:37;8.57;;;4.47;;
70303;SDS011;57712;48.752;11.348;2023-06-24T02:02:06;7.45;;;4.18;;
70303;SDS011;57712;48.752;11.348;2023-06-24T02:05:33;11.13;;;5.13;;
70303;SDS011;57712;48.752;11.348;2023-06-24T02:08:59;8.05;;;4.50;;
70303;SDS011;57712;48.752;11.348;2023-06-24T02:12:26;9.45;;;4.45;;
70303;SDS011;57712;48.752;11.348;2023-06-24T02:15:52;8.10;;;4.23;;
70303;SDS011;57712;48.752;11.348;2023-06-24T02:19:27;8.13;;;4.10;;
70303;SDS011;57712;48.752;11.348;2023-06-24T02:22:54;7.50;;;4.25;;
70303;SDS011;57712;48.752;11.348;2023-06-24T02:26:22;9.82;;;5.15;;
70303;SDS011;57712;48.752;11.348;2023-06-24T02:29:48;9.95;;;5.28;;
70303;SDS011;57712;48.752;11.348;2023-06-24T02:33:17;8.20;;;4.57;;
70303;SDS011;57712;48.752;11.348;2023-06-24T02:36:42;8.77;;;4.95;;
70303;SDS011;57712;48.752;11.348;2023-06-24T02:40:07;8.55;;;5.20;;
70303;SDS011;57712;48.752;11.348;2023-06-24T02:43:33;9.15;;;5.57;;
70303;SDS011;57712;48.752;11.348;2023-06-24T02:46:58;9.48;;;5.80;;
70303;SDS011;57712;48.752;11.348;2023-06-24T02:50:25;8.43;;;5.80;;
70303;SDS011;57712;48.752;11.348;2023-06-24T02:53:52;10.50;;;6.35;;
70303;SDS011;57712;48.752;11.348;2023-06-24T02:57:18;9.45;;;6.00;;
70303;SDS011;57712;48.752;11.348;2023-06-24T03:00:43;10.00;;;5.55;;
70303;SDS011;57712;48.752;11.348;2023-06-24T03:04:12;8.82;;;5.38;;
70303;SDS011;57712;48.752;11.348;2023-06-24T03:07:37;8.97;;;5.60;;
70303;SDS011;57712;48.752;11.348;2023-06-24T03:11:03;8.88;;;5.80;;
70303;SDS011;57712;48.752;11.348;2023-06-24T03:14:29;10.38;;;6.00;;
70303;SDS011;57712;48.752;11.348;2023-06-24T03:17:54;10.13;;;5.90;;
70303;SDS011;57712;48.752;11.348;2023-06-24T03:21:19;9.02;;;5.57;;
70303;SDS011;57712;48.752;11.348;2023-06-24T03:24:46;10.90;;;6.00;;
70303;SDS011;57712;48.752;11.348;2023-06-24T03:28:11;13.90;;;6.35;;
70303;SDS011;57712;48.752;11.348;2023-06-24T03:31:37;9.38;;;6.20;;
70303;SDS011;57712;48.752;11.348;2023-06-24T03:35:03;10.27;;;5.55;;
70303;SDS011;57712;48.752;11.348;2023-06-24T03:38:29;10.43;;;6.30;;
70303;SDS011;57712;48.752;11.348;2023-06-24T03:41:54;9.70;;;5.93;;
70303;SDS011;57712;48.752;11.348;2023-06-24T03:45:19;10.88;;;7.03;;
70303;SDS011;57712;48.752;11.348;2023-06-24T03:48:45;11.82;;;6.38;;
70303;SDS011;57712;48.752;11.348;2023-06-24T03:52:10;9.75;;;6.30;;
70303;SDS011;57712;48.752;11.348;2023-06-24T03:55:35;11.43;;;6.95;;
70303;SDS011;57712;48.752;11.348;2023-06-24T03:59:00;11.67;;;6.37;;
70303;SDS011;57712;48.752;11.348;2023-06-24T04:02:25;11.05;;;6.45;;
70303;SDS011;57712;48.752;11.348;2023-06-24T04:05:55;11.07;;;6.00;;
70303;SDS011;57712;48.752;11.348;2023-06-24T04:09:20;10.80;;;6.75;;
70303;SDS011;57712;48.752;11.348;2023-06-24T04:12:46;9.95;;;6.38;;
70303;SDS011;57712;48.752;11.348;2023-06-24T04:16:15;11.73;;;6.93;;
70303;SDS011;57712;48.752;11.348;2023-06-24T04:19:40;10.18;;;6.10;;
70303;SDS011;57712;48.752;11.348;2023-06-24T04:23:06;10.57;;;6.25;;
70303;SDS011;57712;48.752;11.348;2023-06-24T04:26:31;9.73;;;6.22;;
70303;SDS011;57712;48.752;11.348;2023-06-24T04:29:56;10.40;;;6.38;;
70303;SDS011;57712;48.752;11.348;2023-06-24T04:33:22;12.43;;;6.63;;
70303;SDS011;57712;48.752;11.348;2023-06-24T04:36:47;9.95;;;6.60;;
70303;SDS011;57712;48.752;11.348;2023-06-24T04:40:12;10.98;;;7.13;;
70303;SDS011;57712;48.752;11.348;2023-06-24T04:43:37;11.13;;;6.28;;
70303;SDS011;57712;48.752;11.348;2023-06-24T04:47:03;10.88;;;7.22;;
70303;SDS011;57712;48.752;11.348;2023-06-24T04:50:28;10.93;;;6.57;;
70303;SDS011;57712;48.752;11.348;2023-06-24T04:53:53;10.32;;;6.28;;
70303;SDS011;57712;48.752;11.348;2023-06-24T04:57:29;10.35;;;6.60;;
70303;SDS011;57712;48.752;11.348;2023-06-24T05:00:55;10.80;;;6.72;;
70303;SDS011;57712;48.752;11.348;2023-06-24T05:04:20;10.27;;;6.68;;
70303;SDS011;57712;48.752;11.348;2023-06-24T05:07:47;11.00;;;7.00;;
70303;SDS011;57712;48.752;11.348;2023-06-24T05:11:12;10.82;;;6.78;;
70303;SDS011;57712;48.752;11.348;2023-06-24T05:14:37;10.65;;;7.20;;
70303;SDS011;57712;48.752;11.348;2023-06-24T05:18:03;11.35;;;6.68;;
70303;SDS011;57712;48.752;11.348;2023-06-24T05:21:30;10.98;;;7.25;;
70303;SDS011;57712;48.752;11.348;2023-06-24T05:24:55;11.10;;;6.67;;
70303;SDS011;57712;48.752;11.348;2023-06-24T05:28:21;11.98;;;7.50;;
70303;SDS011;57712;48.752;11.348;2023-06-24T05:31:47;11.40;;;7.15;;
70303;SDS011;57712;48.752;11.348;2023-06-24T05:35:12;11.02;;;6.65;;
70303;SDS011;57712;48.752;11.348;2023-06-24T05:38:37;11.18;;;7.18;;
70303;SDS011;57712;48.752;11.348;2023-06-24T05:42:03;10.60;;;6.40;;
70303;SDS011;57712;48.752;11.348;2023-06-24T05:45:29;10.77;;;6.88;;
70303;SDS011;57712;48.752;11.348;2023-06-24T05:48:54;11.20;;;6.82;;
70303;SDS011;57712;48.752;11.348;2023-06-24T05:52:20;9.80;;;6.28;;
70303;SDS011;57712;48.752;11.348;2023-06-24T05:55:46;11.00;;;6.65;;
70303;SDS011;57712;48.752;11.348;2023-06-24T05:59:11;12.00;;;6.53;;
70303;SDS011;57712;48.752;11.348;2023-06-24T06:02:36;10.68;;;5.93;;
70303;SDS011;57712;48.752;11.348;2023-06-24T06:06:02;9.27;;;5.53;;
70303;SDS011;57712;48.752;11.348;2023-06-24T06:09:28;10.02;;;5.65;;
70303;SDS011;57712;48.752;11.348;2023-06-24T06:12:56;9.07;;;5.63;;
70303;SDS011;57712;48.752;11.348;2023-06-24T06:16:21;8.53;;;5.60;;
70303;SDS011;57712;48.752;11.348;2023-06-24T06:19:46;8.90;;;5.40;;
70303;SDS011;57712;48.752;11.348;2023-06-24T06:23:12;9.15;;;5.22;;
70303;SDS011;57712;48.752;11.348;2023-06-24T06:26:44;8.40;;;4.38;;
70303;SDS011;57712;48.752;11.348;2023-06-24T06:30:09;7.93;;;5.03;;
70303;SDS011;57712;48.752;11.348;2023-06-24T06:33:35;7.20;;;4.20;;
70303;SDS011;57712;48.752;11.348;2023-06-24T06:37:00;9.85;;;4.65;;
70303;SDS011;57712;48.752;11.348;2023-06-24T06:40:26;9.60;;;4.45;;
70303;SDS011;57712;48.752;11.348;2023-06-24T06:43:52;8.63;;;4.05;;
70303;SDS011;57712;48.752;11.348;2023-06-24T06:47:18;7.25;;;4.18;;
70303;SDS011;57712;48.752;11.348;2023-06-24T06:50:45;6.97;;;3.87;;
70303;SDS011;57712;48.752;11.348;2023-06-24T06:54:10;6.43;;;3.47;;
70303;SDS011;57712;48.752;11.348;2023-06-24T06:57:35;6.45;;;3.30;;
70303;SDS011;57712;48.752;11.348;2023-06-24T07:01:01;6.43;;;3.17;;
70303;SDS011;57712;48.752;11.348;2023-06-24T07:04:26;5.63;;;3.05;;
70303;SDS011;57712;48.752;11.348;2023-06-24T07:07:51;5.90;;;3.40;;
70303;SDS011;57712;48.752;11.348;2023-06-24T07:11:16;7.07;;;3.60;;
70303;SDS011;57712;48.752;11.348;2023-06-24T07:14:41;6.88;;;4.03;;
70303;SDS011;57712;48.752;11.348;2023-06-24T07:18:06;6.50;;;3.47;;
70303;SDS011;57712;48.752;11.348;2023-06-24T07:21:32;6.05;;;3.20;;
70303;SDS011;57712;48.752;11.348;2023-06-24T07:24:57;5.80;;;2.90;;
70303;SDS011;57712;48.752;11.348;2023-06-24T07:28:22;5.50;;;2.75;;
70303;SDS011;57712;48.752;11.348;2023-06-24T07:31:48;5.80;;;3.20;;
70303;SDS011;57712;48.752;11.348;2023-06-24T07:35:13;5.43;;;2.83;;
70303;SDS011;57712;48.752;11.348;2023-06-24T07:38:40;5.55;;;3.33;;
70303;SDS011;57712;48.752;11.348;2023-06-24T07:42:05;7.03;;;3.17;;
70303;SDS011;57712;48.752;11.348;2023-06-24T07:45:30;6.95;;;3.70;;
70303;SDS011;57712;48.752;11.348;2023-06-24T07:48:56;5.60;;;3.60;;
70303;SDS011;57712;48.752;11.348;2023-06-24T07:52:21;5.97;;;3.10;;
70303;SDS011;57712;48.752;11.348;2023-06-24T07:55:47;5.82;;;3.55;;
70303;SDS011;57712;48.752;11.348;2023-06-24T07:59:12;5.90;;;2.80;;
70303;SDS011;57712;48.752;11.348;2023-06-24T08:02:38;5.68;;;3.15;;
70303;SDS011;57712;48.752;11.348;2023-06-24T08:06:03;6.90;;;3.95;;
70303;SDS011;57712;48.752;11.348;2023-06-24T08:09:29;6.38;;;3.20;;
70303;SDS011;57712;48.752;11.348;2023-06-24T08:12:55;6.28;;;3.85;;
70303;SDS011;57712;48.752;11.348;2023-06-24T08:16:20;6.77;;;3.27;;
70303;SDS011;57712;48.752;11.348;2023-06-24T08:19:45;5.78;;;3.28;;
70303;SDS011;57712;48.752;11.348;2023-06-24T08:23:10;6.88;;;3.70;;
70303;SDS011;57712;48.752;11.348;2023-06-24T08:26:36;6.15;;;3.47;;
70303;SDS011;57712;48.752;11.348;2023-06-24T08:30:02;5.80;;;3.42;;
70303;SDS011;57712;48.752;11.348;2023-06-24T08:33:28;5.50;;;3.30;;
70303;SDS011;57712;48.752;11.348;2023-06-24T08:36:53;6.93;;;4.28;;
70303;SDS011;57712;48.752;11.348;2023-06-24T08:40:18;6.47;;;3.97;;
70303;SDS011;57712;48.752;11.348;2023-06-24T08:43:43;7.65;;;4.40;;
70303;SDS011;57712;48.752;11.348;2023-06-24T08:47:08;8.07;;;4.07;;
70303;SDS011;57712;48.752;11.348;2023-06-24T08:50:39;7.17;;;3.33;;
70303;SDS011;57712;48.752;11.348;2023-06-24T08:54:08;6.88;;;4.07;;
70303;SDS011;57712;48.752;11.348;2023-06-24T08:57:36;6.38;;;3.95;;
70303;SDS011;57712;48.752;11.348;2023-06-24T09:01:02;6.38;;;3.47;;
70303;SDS011;57712;48.752;11.348;2023-06-24T09:04:28;7.82;;;4.03;;
70303;SDS011;57712;48.752;11.348;2023-06-24T09:07:54;6.77;;;3.90;;
70303;SDS011;57712;48.752;11.348;2023-06-24T09:11:27;6.57;;;3.50;;
70303;SDS011;57712;48.752;11.348;2023-06-24T09:14:53;6.93;;;3.92;;
70303;SDS011;57712;48.752;11.348;2023-06-24T09:18:18;7.40;;;4.03;;
70303;SDS011;57712;48.752;11.348;2023-06-24T09:21:52;7.15;;;4.00;;
70303;SDS011;57712;48.752;11.348;2023-06-24T09:25:17;8.10;;;3.83;;
70303;SDS011;57712;48.752;11.348;2023-06-24T09:28:47;6.53;;;3.65;;
70303;SDS011;57712;48.752;11.348;2023-06-24T09:32:13;6.80;;;3.72;;
70303;SDS011;57712;48.752;11.348;2023-06-24T09:35:39;6.03;;;3.20;;
70303;SDS011;57712;48.752;11.348;2023-06-24T09:39:07;6.63;;;3.65;;
70303;SDS011;57712;48.752;11.348;2023-06-24T09:42:36;6.40;;;3.50;;
70303;SDS011;57712;48.752;11.348;2023-06-24T09:46:06;6.28;;;3.53;;
70303;SDS011;57712;48.752;11.348;2023-06-24T09:49:32;6.60;;;4.07;;
70303;SDS011;57712;48.752;11.348;2023-06-24T09:52:58;6.38;;;3.78;;
70303;SDS011;57712;48.752;11.348;2023-06-24T09:56:23;7.82;;;3.95;;
70303;SDS011;57712;48.752;11.348;2023-06-24T09:59:53;6.67;;;3.60;;
70303;SDS011;57712;48.752;11.348;2023-06-24T10:03:20;6.10;;;3.58;;
70303;SDS011;57712;48.752;11.348;2023-06-24T10:06:46;8.13;;;3.78;;
70303;SDS011;57712;48.752;11.348;2023-06-24T10:10:12;8.00;;;4.20;;
70303;SDS011;57712;48.752;11.348;2023-06-24T10:13:37;6.68;;;3.60;;
70303;SDS011;57712;48.752;11.348;2023-06-24T10:17:03;6.30;;;3.80;;
70303;SDS011;57712;48.752;11.348;2023-06-24T10:20:36;6.13;;;4.03;;
70303;SDS011;57712;48.752;11.348;2023-06-24T10:24:34;5.75;;;3.67;;
70303;SDS011;57712;48.752;11.348;2023-06-24T10:28:03;6.05;;;3.70;;
70303;SDS011;57712;48.752;11.348;2023-06-24T10:35:22;6.67;;;3.57;;
70303;SDS011;57712;48.752;11.348;2023-06-24T10:38:57;6.07;;;3.45;;
70303;SDS011;57712;48.752;11.348;2023-06-24T10:42:42;5.75;;;3.83;;
70303;SDS011;57712;48.752;11.348;2023-06-24T10:46:14;6.20;;;3.47;;
70303;SDS011;57712;48.752;11.348;2023-06-24T10:49:39;5.78;;;3.63;;
70303;SDS011;57712;48.752;11.348;2023-06-24T10:53:07;6.37;;;3.53;;
70303;SDS011;57712;48.752;11.348;2023-06-24T10:56:33;5.43;;;3.28;;
70303;SDS011;57712;48.752;11.348;2023-06-24T10:59:58;5.88;;;3.35;;
70303;SDS011;57712;48.752;11.348;2023-06-24T11:03:42;6.00;;;3.92;;
70303;SDS011;57712;48.752;11.348;2023-06-24T11:07:11;5.63;;;3.10;;
70303;SDS011;57712;48.752;11.348;2023-06-24T11:10:47;5.60;;;3.47;;
70303;SDS011;57712;48.752;11.348;2023-06-24T11:14:15;5.80;;;3.10;;
70303;SDS011;57712;48.752;11.348;2023-06-24T11:17:40;6.68;;;3.88;;
70303;SDS011;57712;48.752;11.348;2023-06-24T11:21:08;6.28;;;3.50;;
70303;SDS011;57712;48.752;11.348;2023-06-24T11:24:34;5.35;;;3.42;;
70303;SDS011;57712;48.752;11.348;2023-06-24T11:28:04;5.73;;;3.50;;
70303;SDS011;57712;48.752;11.348;2023-06-24T11:31:37;6.00;;;3.15;;
70303;SDS011;57712;48.752;11.348;2023-06-24T11:35:07;5.10;;;3.30;;
70303;SDS011;57712;48.752;11.348;2023-06-24T11:38:36;6.57;;;3.13;;
70303;SDS011;57712;48.752;11.348;2023-06-24T11:42:01;5.05;;;3.30;;
70303;SDS011;57712;48.752;11.348;2023-06-24T11:45:28;5.00;;;2.87;;
70303;SDS011;57712;48.752;11.348;2023-06-24T11:49:05;5.53;;;3.17;;
70303;SDS011;57712;48.752;11.348;2023-06-24T11:52:42;5.22;;;3.10;;
70303;SDS011;57712;48.752;11.348;2023-06-24T11:56:12;5.68;;;3.63;;
70303;SDS011;57712;48.752;11.348;2023-06-24T11:59:41;4.80;;;2.60;;
70303;SDS011;57712;48.752;11.348;2023-06-24T12:03:09;5.03;;;3.10;;
70303;SDS011;57712;48.752;11.348;2023-06-24T12:06:38;5.20;;;2.92;;
70303;SDS011;57712;48.752;11.348;2023-06-24T12:10:03;5.82;;;3.40;;
70303;SDS011;57712;48.752;11.348;2023-06-24T12:13:30;5.82;;;4.05;;
70303;SDS011;57712;48.752;11.348;2023-06-24T12:16:57;6.25;;;4.38;;
70303;SDS011;57712;48.752;11.348;2023-06-24T12:20:24;6.30;;;3.43;;
70303;SDS011;57712;48.752;11.348;2023-06-24T12:23:49;6.22;;;3.25;;
70303;SDS011;57712;48.752;11.348;2023-06-24T12:27:16;6.30;;;3.60;;
70303;SDS011;57712;48.752;11.348;2023-06-24T12:30:41;5.95;;;2.95;;
70303;SDS011;57712;48.752;11.348;2023-06-24T12:34:07;6.20;;;3.67;;
70303;SDS011;57712;48.752;11.348;2023-06-24T12:37:35;5.23;;;3.10;;
70303;SDS011;57712;48.752;11.348;2023-06-24T12:41:02;6.68;;;3.22;;
70303;SDS011;57712;48.752;11.348;2023-06-24T12:44:27;5.18;;;3.25;;
70303;SDS011;57712;48.752;11.348;2023-06-24T12:47:52;4.75;;;2.53;;
70303;SDS011;57712;48.752;11.348;2023-06-24T12:51:18;5.32;;;2.83;;
70303;SDS011;57712;48.752;11.348;2023-06-24T12:54:43;4.60;;;2.50;;
70303;SDS011;57712;48.752;11.348;2023-06-24T12:58:08;5.95;;;2.85;;
70303;SDS011;57712;48.752;11.348;2023-06-24T13:01:33;7.43;;;3.63;;
70303;SDS011;57712;48.752;11.348;2023-06-24T13:04:59;11.48;;;5.35;;
70303;SDS011;57712;48.752;11.348;2023-06-24T13:08:24;24.80;;;9.98;;
70303;SDS011;57712;48.752;11.348;2023-06-24T13:11:49;7.73;;;3.33;;
70303;SDS011;57712;48.752;11.348;2023-06-24T13:15:17;8.20;;;2.83;;
70303;SDS011;57712;48.752;11.348;2023-06-24T13:18:43;5.60;;;3.45;;
70303;SDS011;57712;48.752;11.348;2023-06-24T13:22:08;7.40;;;3.03;;
70303;SDS011;57712;48.752;11.348;2023-06-24T13:25:33;6.05;;;2.83;;
70303;SDS011;57712;48.752;11.348;2023-06-24T13:28:58;5.00;;;2.67;;
70303;SDS011;57712;48.752;11.348;2023-06-24T13:32:23;4.45;;;2.30;;
70303;SDS011;57712;48.752;11.348;2023-06-24T13:35:48;5.45;;;3.25;;
70303;SDS011;57712;48.752;11.348;2023-06-24T13:39:14;5.55;;;3.03;;
70303;SDS011;57712;48.752;11.348;2023-06-24T13:42:39;5.97;;;2.92;;
70303;SDS011;57712;48.752;11.348;2023-06-24T13:46:05;5.37;;;2.90;;
70303;SDS011;57712;48.752;11.348;2023-06-24T13:49:30;5.47;;;2.80;;
70303;SDS011;57712;48.752;11.348;2023-06-24T13:52:57;4.93;;;2.55;;
70303;SDS011;57712;48.752;11.348;2023-06-24T13:56:23;5.15;;;2.75;;
70303;SDS011;57712;48.752;11.348;2023-06-24T13:59:48;4.65;;;2.78;;
70303;SDS011;57712;48.752;11.348;2023-06-24T14:03:13;5.90;;;3.03;;
70303;SDS011;57712;48.752;11.348;2023-06-24T14:06:38;5.50;;;3.05;;
70303;SDS011;57712;48.752;11.348;2023-06-24T14:10:04;5.50;;;2.80;;
70303;SDS011;57712;48.752;11.348;2023-06-24T14:13:30;5.30;;;3.30;;
70303;SDS011;57712;48.752;11.348;2023-06-24T14:16:55;5.35;;;3.45;;
70303;SDS011;57712;48.752;11.348;2023-06-24T14:20:21;5.07;;;3.17;;
70303;SDS011;57712;48.752;11.348;2023-06-24T14:23:46;5.63;;;3.40;;
70303;SDS011;57712;48.752;11.348;2023-06-24T14:27:11;5.25;;;2.83;;
70303;SDS011;57712;48.752;11.348;2023-06-24T14:30:37;5.72;;;3.05;;
70303;SDS011;57712;48.752;11.348;2023-06-24T14:34:02;5.65;;;3.63;;
70303;SDS011;57712;48.752;11.348;2023-06-24T14:37:27;5.60;;;3.30;;
70303;SDS011;57712;48.752;11.348;2023-06-24T14:40:54;5.30;;;3.10;;
70303;SDS011;57712;48.752;11.348;2023-06-24T14:44:19;5.95;;;3.10;;
70303;SDS011;57712;48.752;11.348;2023-06-24T14:47:45;6.28;;;3.53;;
70303;SDS011;57712;48.752;11.348;2023-06-24T14:51:10;6.07;;;3.90;;
70303;SDS011;57712;48.752;11.348;2023-06-24T14:54:35;4.90;;;2.80;;
70303;SDS011;57712;48.752;11.348;2023-06-24T14:58:01;6.03;;;3.22;;
70303;SDS011;57712;48.752;11.348;2023-06-24T15:01:26;4.93;;;2.70;;
70303;SDS011;57712;48.752;11.348;2023-06-24T15:04:52;5.28;;;3.05;;
70303;SDS011;57712;48.752;11.348;2023-06-24T15:08:18;5.00;;;3.33;;
70303;SDS011;57712;48.752;11.348;2023-06-24T15:11:43;5.43;;;3.50;;
70303;SDS011;57712;48.752;11.348;2023-06-24T15:15:08;5.18;;;2.80;;
70303;SDS011;57712;48.752;11.348;2023-06-24T15:18:33;5.28;;;3.20;;
70303;SDS011;57712;48.752;11.348;2023-06-24T15:21:59;6.13;;;2.85;;
70303;SDS011;57712;48.752;11.348;2023-06-24T15:25:24;4.93;;;2.85;;
70303;SDS011;57712;48.752;11.348;2023-06-24T15:28:49;7.30;;;3.60;;
70303;SDS011;57712;48.752;11.348;2023-06-24T15:32:15;5.05;;;2.95;;
70303;SDS011;57712;48.752;11.348;2023-06-24T15:35:40;6.15;;;3.22;;
70303;SDS011;57712;48.752;11.348;2023-06-24T15:39:06;5.72;;;3.28;;
70303;SDS011;57712;48.752;11.348;2023-06-24T15:42:32;5.75;;;2.92;;
70303;SDS011;57712;48.752;11.348;2023-06-24T15:45:57;5.20;;;2.87;;
70303;SDS011;57712;48.752;11.348;2023-06-24T15:49:24;6.00;;;2.70;;
70303;SDS011;57712;48.752;11.348;2023-06-24T15:52:49;5.25;;;3.20;;
70303;SDS011;57712;48.752;11.348;2023-06-24T15:56:15;5.32;;;3.03;;
70303;SDS011;57712;48.752;11.348;2023-06-24T15:59:40;6.32;;;3.50;;
70303;SDS011;57712;48.752;11.348;2023-06-24T16:03:05;5.07;;;2.93;;
70303;SDS011;57712;48.752;11.348;2023-06-24T16:06:30;5.70;;;3.45;;
70303;SDS011;57712;48.752;11.348;2023-06-24T16:10:01;5.40;;;3.70;;
70303;SDS011;57712;48.752;11.348;2023-06-24T16:13:27;5.25;;;3.03;;
70303;SDS011;57712;48.752;11.348;2023-06-24T16:16:53;5.97;;;3.33;;
70303;SDS011;57712;48.752;11.348;2023-06-24T16:20:19;5.50;;;3.27;;
70303;SDS011;57712;48.752;11.348;2023-06-24T16:23:44;5.15;;;3.20;;
70303;SDS011;57712;48.752;11.348;2023-06-24T16:27:10;10.55;;;3.78;;
70303;SDS011;57712;48.752;11.348;2023-06-24T16:30:35;5.68;;;3.42;;
70303;SDS011;57712;48.752;11.348;2023-06-24T16:34:00;6.20;;;3.63;;
70303;SDS011;57712;48.752;11.348;2023-06-24T16:37:29;6.27;;;3.83;;
70303;SDS011;57712;48.752;11.348;2023-06-24T16:40:54;5.75;;;3.63;;
70303;SDS011;57712;48.752;11.348;2023-06-24T16:44:19;6.93;;;3.85;;
70303;SDS011;57712;48.752;11.348;2023-06-24T16:47:45;5.80;;;3.80;;
70303;SDS011;57712;48.752;11.348;2023-06-24T16:51:10;5.80;;;4.07;;
70303;SDS011;57712;48.752;11.348;2023-06-24T16:54:35;5.03;;;3.23;;
70303;SDS011;57712;48.752;11.348;2023-06-24T16:58:01;6.47;;;4.10;;
70303;SDS011;57712;48.752;11.348;2023-06-24T17:01:26;7.32;;;4.63;;
70303;SDS011;57712;48.752;11.348;2023-06-24T17:04:52;6.78;;;3.85;;
70303;SDS011;57712;48.752;11.348;2023-06-24T17:08:17;6.15;;;3.40;;
70303;SDS011;57712;48.752;11.348;2023-06-24T17:11:42;6.30;;;3.67;;
70303;SDS011;57712;48.752;11.348;2023-06-24T17:15:07;6.43;;;3.20;;
70303;SDS011;57712;48.752;11.348;2023-06-24T17:18:33;5.70;;;3.65;;
70303;SDS011;57712;48.752;11.348;2023-06-24T17:21:58;5.90;;;3.60;;
70303;SDS011;57712;48.752;11.348;2023-06-24T17:25:24;7.05;;;4.38;;
70303;SDS011;57712;48.752;11.348;2023-06-24T17:28:49;7.27;;;3.87;;
70303;SDS011;57712;48.752;11.348;2023-06-24T17:32:17;6.72;;;3.50;;
70303;SDS011;57712;48.752;11.348;2023-06-24T17:35:42;6.93;;;3.72;;
70303;SDS011;57712;48.752;11.348;2023-06-24T17:39:07;7.40;;;4.60;;
70303;SDS011;57712;48.752;11.348;2023-06-24T17:42:33;6.20;;;3.67;;
70303;SDS011;57712;48.752;11.348;2023-06-24T17:45:58;7.27;;;4.63;;
70303;SDS011;57712;48.752;11.348;2023-06-24T17:49:23;6.05;;;3.58;;
70303;SDS011;57712;48.752;11.348;2023-06-24T17:52:51;6.65;;;4.25;;
70303;SDS011;57712;48.752;11.348;2023-06-24T17:56:16;6.00;;;3.67;;
70303;SDS011;57712;48.752;11.348;2023-06-24T17:59:42;7.18;;;3.35;;
70303;SDS011;57712;48.752;11.348;2023-06-24T18:03:08;6.50;;;3.67;;
70303;SDS011;57712;48.752;11.348;2023-06-24T18:06:35;6.22;;;3.25;;
70303;SDS011;57712;48.752;11.348;2023-06-24T18:10:00;6.50;;;3.88;;
70303;SDS011;57712;48.752;11.348;2023-06-24T18:13:26;6.18;;;3.35;;
70303;SDS011;57712;48.752;11.348;2023-06-24T18:16:51;6.07;;;3.63;;
70303;SDS011;57712;48.752;11.348;2023-06-24T18:20:20;5.97;;;3.33;;
70303;SDS011;57712;48.752;11.348;2023-06-24T18:23:45;5.45;;;2.75;;
70303;SDS011;57712;48.752;11.348;2023-06-24T18:27:11;5.20;;;2.95;;
70303;SDS011;57712;48.752;11.348;2023-06-24T18:30:36;7.50;;;3.58;;
70303;SDS011;57712;48.752;11.348;2023-06-24T18:34:03;6.30;;;3.65;;
70303;SDS011;57712;48.752;11.348;2023-06-24T18:37:29;6.10;;;3.27;;
70303;SDS011;57712;48.752;11.348;2023-06-24T18:40:54;6.30;;;3.45;;
70303;SDS011;57712;48.752;11.348;2023-06-24T18:44:19;6.57;;;4.20;;
70303;SDS011;57712;48.752;11.348;2023-06-24T18:47:45;5.95;;;3.85;;
70303;SDS011;57712;48.752;11.348;2023-06-24T18:51:10;6.03;;;3.63;;
70303;SDS011;57712;48.752;11.348;2023-06-24T18:54:35;6.23;;;2.80;;
70303;SDS011;57712;48.752;11.348;2023-06-24T18:58:02;6.13;;;2.90;;
70303;SDS011;57712;48.752;11.348;2023-06-24T19:01:28;5.38;;;3.30;;
70303;SDS011;57712;48.752;11.348;2023-06-24T19:04:53;8.13;;;4.25;;
70303;SDS011;57712;48.752;11.348;2023-06-24T19:08:19;8.05;;;3.85;;
70303;SDS011;57712;48.752;11.348;2023-06-24T19:11:44;8.17;;;3.73;;
70303;SDS011;57712;48.752;11.348;2023-06-24T19:15:09;8.13;;;3.95;;
70303;SDS011;57712;48.752;11.348;2023-06-24T19:18:34;6.28;;;2.88;;
70303;SDS011;57712;48.752;11.348;2023-06-24T19:21:59;7.55;;;3.58;;
70303;SDS011;57712;48.752;11.348;2023-06-24T19:25:25;7.25;;;3.47;;
70303;SDS011;57712;48.752;11.348;2023-06-24T19:28:51;9.33;;;3.10;;
70303;SDS011;57712;48.752;11.348;2023-06-24T19:32:16;8.52;;;3.15;;
70303;SDS011;57712;48.752;11.348;2023-06-24T19:35:42;8.40;;;3.45;;
70303;SDS011;57712;48.752;11.348;2023-06-24T19:39:07;7.97;;;4.00;;
70303;SDS011;57712;48.752;11.348;2023-06-24T19:42:34;6.88;;;3.80;;
70303;SDS011;57712;48.752;11.348;2023-06-24T19:45:59;6.53;;;3.27;;
70303;SDS011;57712;48.752;11.348;2023-06-24T19:49:25;8.27;;;4.15;;
70303;SDS011;57712;48.752;11.348;2023-06-24T19:52:50;7.20;;;3.80;;
70303;SDS011;57712;48.752;11.348;2023-06-24T19:56:15;7.78;;;3.75;;
70303;SDS011;57712;48.752;11.348;2023-06-24T19:59:44;8.55;;;3.75;;
70303;SDS011;57712;48.752;11.348;2023-06-24T20:03:09;7.73;;;3.63;;
70303;SDS011;57712;48.752;11.348;2023-06-24T20:06:34;6.32;;;3.50;;
70303;SDS011;57712;48.752;11.348;2023-06-24T20:10:00;6.63;;;3.58;;
70303;SDS011;57712;48.752;11.348;2023-06-24T20:13:25;6.40;;;3.58;;
70303;SDS011;57712;48.752;11.348;2023-06-24T20:16:50;6.63;;;3.72;;
70303;SDS011;57712;48.752;11.348;2023-06-24T20:20:16;9.80;;;4.40;;
70303;SDS011;57712;48.752;11.348;2023-06-24T20:23:41;12.60;;;4.25;;
70303;SDS011;57712;48.752;11.348;2023-06-24T20:27:06;13.77;;;5.47;;
70303;SDS011;57712;48.752;11.348;2023-06-24T20:30:31;14.00;;;6.50;;
70303;SDS011;57712;48.752;11.348;2023-06-24T20:33:56;13.23;;;8.02;;
70303;SDS011;57712;48.752;11.348;2023-06-24T20:37:22;13.07;;;9.33;;
70303;SDS011;57712;48.752;11.348;2023-06-24T20:40:48;8.95;;;4.65;;